Time;durP1;ratioP1;P1;durP2;ratioP2;P2;SDS_P1;SDS_P2;PMS_P1;PMS_P2;Temp;Humidity;BMP_temperature;BMP_pressure;BME280_temperature;BME280_humidity;BME280_pressure;Samples;Min_cycle;Max_cycle;Signal;HPM_P1;HPM_P2
2021/10/06 00:04:47;;;;;;;;;;;;;;;;;;;;;
2021/10/06 00:27:56;;;;;;;;;;;;;;;;;;;;;
2021/10/06 00:48:07;;;;;;;5.20;2.07;;;13.70;99.90;;;;;;6320916;22;20442;-84
2021/10/06 00:51:45;;;;;;;3.63;3.13;;;13.70;99.90;;;;;;6176618;23;20438;-85
2021/10/06 00:58:51;;;;;;;;;;;;;;;;;;;;;
2021/10/06 01:13:53;;;;;;;3.40;1.40;;;13.40;99.90;;;;;;6159128;23;21005;-82
2021/10/06 01:16:55;;;;;;;3.67;1.17;;;13.40;99.90;;;;;;6133093;23;20452;-86
2021/10/06 01:20:14;;;;;;;3.10;1.40;;;13.40;99.90;;;;;;6150887;23;20481;-84
2021/10/06 01:22:43;;;;;;;1.30;1.20;;;13.50;99.90;;;;;;6165193;23;20548;-84
2021/10/06 01:31:48;;;;;;;1.33;1.10;;;13.50;99.90;;;;;;6148872;23;20464;-86
2021/10/06 01:34:32;;;;;;;;;;;;;;;;;;;;;
2021/10/06 01:41:23;;;;;;;1.63;1.27;;;13.60;99.90;;;;;;6299225;22;20408;-84
2021/10/06 01:44:14;;;;;;;2.27;1.33;;;13.40;99.90;;;;;;6281771;22;20366;-84
2021/10/06 01:57:44;;;;;;;6.37;1.10;;;13.50;99.90;;;;;;6331947;22;20464;-83
2021/10/06 02:09:09;;;;;;;;;;;;;;;;;;;;;
2021/10/06 02:29:51;;;;;;;4.57;1.10;;;13.60;99.90;;;;;;6316295;22;20380;-84
2021/10/06 02:51:46;;;;;;;;;;;;;;;;;;;;;
2021/10/06 02:59:02;;;;;;;5.33;1.70;;;13.80;99.90;;;;;;6016641;23;20404;-84
2021/10/06 03:02:30;;;;;;;2.20;1.07;;;13.70;99.90;;;;;;5971058;23;20436;-85
2021/10/06 03:09:21;;;;;;;4.20;1.10;;;13.40;99.90;;;;;;5956240;23;20986;-84
2021/10/06 03:16:45;;;;;;;;;;;;;;;;;;;;;
2021/10/06 03:28:25;;;;;;;2.97;1.50;;;13.70;99.90;;;;;;6296534;22;20886;-85
2021/10/06 03:31:18;;;;;;;1.97;1.13;;;13.70;99.90;;;;;;6257282;22;21382;-84
2021/10/06 03:33:53;;;;;;;3.83;1.40;;;13.80;99.90;;;;;;6270900;22;20778;-84
2021/10/06 03:36:42;;;;;;;6.17;1.50;;;14.00;99.90;;;;;;6266923;22;20402;-85
2021/10/06 03:42:49;;;;;;;4.33;1.20;;;13.70;99.90;;;;;;6249366;22;20464;-84
2021/10/06 03:45:48;;;;;;;3.63;1.17;;;13.80;99.90;;;;;;6272405;22;20383;-84
2021/10/06 04:03:12;;;;;;;5.37;1.50;;;13.30;99.90;;;;;;6317388;22;20421;-86
2021/10/06 04:06:03;;;;;;;3.87;1.30;;;13.30;99.90;;;;;;6263184;22;20385;-86
2021/10/06 04:08:51;;;;;;;2.07;1.13;;;13.30;99.90;;;;;;6272779;22;20382;-85
2021/10/06 04:11:57;;;;;;;3.77;1.13;;;13.30;99.90;;;;;;6148541;23;20421;-87
2021/10/06 04:21:22;;;;;;;2.77;1.20;;;13.30;99.90;;;;;;6227190;22;20948;-83
2021/10/06 04:24:17;;;;;;;2.20;1.20;;;13.30;99.90;;;;;;6268014;22;20473;-83
2021/10/06 04:26:59;;;;;;;3.93;1.33;;;13.30;99.90;;;;;;6260831;22;20405;-84
2021/10/06 04:32:48;;;;;;;1.20;1.10;;;13.40;99.90;;;;;;6296568;22;20429;-86
2021/10/06 04:35:48;;;;;;;4.90;1.57;;;13.40;99.90;;;;;;6266356;22;20435;-85
2021/10/06 04:39:05;;;;;;;2.63;1.07;;;13.50;99.90;;;;;;6258001;22;20778;-84
2021/10/06 04:41:54;;;;;;;4.53;2.00;;;13.50;99.90;;;;;;6231308;22;20471;-87
2021/10/06 04:44:57;;;;;;;1.70;1.20;;;13.40;99.90;;;;;;6086552;23;20380;-86
2021/10/06 04:55:05;;;;;;;2.90;1.23;;;13.50;99.80;;;;;;6105116;23;20545;-86
2021/10/06 04:58:04;;;;;;;3.03;1.50;;;13.60;99.60;;;;;;6108106;23;20541;-87
2021/10/06 05:00:51;;;;;;;2.10;1.30;;;13.50;99.70;;;;;;6089151;23;20532;-86
2021/10/06 05:04:17;;;;;;;4.37;2.00;;;13.50;99.70;;;;;;6112427;23;20452;-85
2021/10/06 05:10:45;;;;;;;;;;;;;;;;;;;;;
2021/10/06 05:13:45;;;;;;;4.23;1.53;;;13.50;99.80;;;;;;6106880;23;20437;-86
2021/10/06 05:17:02;;;;;;;5.90;1.50;;;13.50;99.70;;;;;;6077815;23;21122;-87
2021/10/06 05:19:44;;;;;;;4.53;1.57;;;13.50;99.70;;;;;;6045944;23;20407;-85
2021/10/06 05:23:03;;;;;;;4.10;1.60;;;13.50;99.90;;;;;;6221388;22;20419;-85
2021/10/06 05:25:42;;;;;;;;;;;;;;;;;;;;;
2021/10/06 05:28:44;;;;;;;4.23;1.40;;;13.50;99.50;;;;;;6266923;22;20494;-85
2021/10/06 05:31:26;;;;;;;4.10;1.93;;;13.50;99.70;;;;;;6240328;22;20468;-86
2021/10/06 05:34:18;;;;;;;5.20;1.60;;;13.50;99.70;;;;;;6242723;22;20461;-86
2021/10/06 05:36:47;;;;;;;1.63;1.50;;;13.50;99.90;;;;;;6241936;22;20444;-85
2021/10/06 05:39:37;;;;;;;3.80;1.87;;;13.60;99.90;;;;;;6117968;23;20382;-84
2021/10/06 05:46:36;;;;;;;5.17;1.53;;;13.50;99.80;;;;;;6248583;22;20398;-85
2021/10/06 05:49:40;;;;;;;3.60;1.20;;;13.60;99.50;;;;;;6125028;22;20935;-86
2021/10/06 05:52:39;;;;;;;2.30;1.03;;;13.50;99.40;;;;;;6237532;22;20399;-83
2021/10/06 05:59:42;;;;;;;3.73;1.30;;;13.50;99.60;;;;;;6175455;22;20488;-83
2021/10/06 06:06:05;;;;;;;1.30;1.20;;;13.60;99.20;;;;;;6144736;22;20956;-86
2021/10/06 06:09:32;;;;;;;2.53;1.10;;;13.60;99.40;;;;;;6230900;22;20480;-86
2021/10/06 06:13:01;;;;;;;2.20;1.13;;;13.70;99.10;;;;;;6204711;22;20417;-85
2021/10/06 06:16:36;;;;;;;;;;;;;;;;;;;;;
2021/10/06 06:19:39;;;;;;;3.07;1.50;;;13.80;98.80;;;;;;6051351;23;20460;-83
2021/10/06 06:22:55;;;;;;;3.37;1.00;;;13.80;98.60;;;;;;6055632;23;20504;-86
2021/10/06 06:25:39;;;;;;;1.27;0.90;;;13.80;98.20;;;;;;6145503;23;20437;-86
2021/10/06 06:28:14;;;;;;;5.30;1.40;;;13.90;98.00;;;;;;6136541;23;21198;-86
2021/10/06 06:34:49;;;;;;;2.40;1.57;;;13.70;98.30;;;;;;6042664;23;20612;-84
2021/10/06 06:59:57;;;;;;;3.80;1.40;;;14.40;96.10;;;;;;6044339;23;20407;-85
2021/10/06 07:03:01;;;;;;;3.00;1.53;;;14.40;96.20;;;;;;5989498;23;20497;-85
2021/10/06 07:07:05;;;;;;;4.33;1.50;;;14.00;97.30;;;;;;5925898;23;20998;-87
2021/10/06 07:16:06;;;;;;;5.30;1.77;;;14.10;98.20;;;;;;6321788;22;20425;-85
2021/10/06 07:19:07;;;;;;;;;;;;;;;;;;;;;
2021/10/06 07:25:10;;;;;;;2.30;1.03;;;14.00;99.80;;;;;;6135760;22;20411;-84
2021/10/06 07:28:12;;;;;;;3.27;1.70;;;13.90;99.90;;;;;;6244758;22;20444;-85
2021/10/06 07:30:56;;;;;;;3.13;1.40;;;13.90;99.60;;;;;;6245897;22;21059;-85
2021/10/06 07:33:37;;;;;;;4.67;1.53;;;13.90;99.90;;;;;;6242278;22;20473;-84
2021/10/06 07:36:18;;;;;;;4.07;1.57;;;13.90;99.90;;;;;;6225772;22;20835;-85
2021/10/06 07:38:54;;;;;;;3.70;1.60;;;13.70;99.90;;;;;;6268773;22;20504;-85
2021/10/06 07:41:37;;;;;;;4.23;1.27;;;13.70;99.90;;;;;;6181833;23;20466;-86
2021/10/06 07:44:58;;;;;;;4.83;1.90;;;14.00;99.90;;;;;;6270000;22;20414;-84
2021/10/06 07:47:43;;;;;;;4.23;2.33;;;14.10;99.90;;;;;;6241613;22;20410;-86
2021/10/06 07:50:23;;;;;;;;;;;;;;;;;;;;;
2021/10/06 07:57:03;;;;;;;7.53;3.47;;;14.10;99.90;;;;;;6136957;23;20429;-85
2021/10/06 08:00:19;;;;;;;6.40;1.40;;;14.00;99.90;;;;;;6128541;22;20831;-86
2021/10/06 08:03:53;;;;;;;6.03;2.10;;;14.00;99.90;;;;;;6253161;22;20410;-85
2021/10/06 08:06:51;;;;;;;4.17;2.03;;;13.90;99.90;;;;;;6235816;22;20914;-85
2021/10/06 08:13:05;;;;;;;;;;;;;;;;;;;;;
2021/10/06 08:19:34;;;;;;;3.33;1.50;;;14.10;99.90;;;;;;6191107;23;20397;-84
2021/10/06 08:22:30;;;;;;;3.07;1.10;;;14.00;99.90;;;;;;6162557;23;20408;-86
2021/10/06 08:25:03;;;;;;;3.97;1.70;;;14.10;99.20;;;;;;6176502;23;20406;-84
2021/10/06 08:28:12;;;;;;;;;;;;;;;;;;;;;
2021/10/06 08:31:32;;;;;;;4.20;1.30;;;13.90;99.90;;;;;;6176039;23;20536;-83
2021/10/06 08:38:51;;;;;;;;;;;;;;;;;;;;;
2021/10/06 08:48:18;;;;;;;2.53;1.23;;;14.00;98.90;;;;;;6113672;23;20413;-85
2021/10/06 08:59:21;;;;;;;1.53;0.83;;;14.40;97.10;;;;;;6056713;23;20435;-86
2021/10/06 09:09:39;;;;;;;1.70;0.83;;;14.40;96.20;;;;;;6201737;22;20405;-87
2021/10/06 09:13:00;;;;;;;2.83;2.00;;;14.40;95.80;;;;;;6269194;22;20394;-85
2021/10/06 09:16:17;;;;;;;;;;;;;;;;;;;;;
2021/10/06 09:19:46;;;;;;;1.83;1.00;;;14.10;96.90;;;;;;6274393;22;20921;-85
2021/10/06 09:26:36;;;;;;;2.00;0.90;;;14.20;97.00;;;;;;6136057;23;20406;-86
2021/10/06 09:30:21;;;;;;;2.73;1.30;;;14.10;97.40;;;;;;5993770;23;20394;-88
2021/10/06 09:33:42;;;;;;;1.93;1.10;;;14.10;97.00;;;;;;6125582;23;20416;-86
2021/10/06 09:36:55;;;;;;;1.67;0.90;;;14.40;97.10;;;;;;6094704;23;21019;-86
2021/10/06 09:40:14;;;;;;;2.50;0.80;;;14.20;97.90;;;;;;6163981;22;20414;-86
2021/10/06 09:46:20;;;;;;;2.40;1.00;;;13.80;99.80;;;;;;6124440;22;20429;-85
2021/10/06 09:49:01;;;;;;;1.33;0.80;;;13.70;99.90;;;;;;6228742;22;20513;-84
2021/10/06 09:51:53;;;;;;;2.47;0.87;;;13.90;99.90;;;;;;6266096;22;20460;-85
2021/10/06 09:54:20;;;;;;;1.80;0.93;;;14.10;99.80;;;;;;6238380;22;20743;-84
2021/10/06 09:56:55;;;;;;;3.13;0.83;;;14.20;99.90;;;;;;6233153;22;20489;-84
2021/10/06 10:00:06;;;;;;;;;;;;;;;;;;;;;
2021/10/06 10:03:25;;;;;;;1.57;0.73;;;14.10;99.00;;;;;;6271087;22;20433;-84
2021/10/06 10:06:14;;;;;;;2.17;0.97;;;13.90;99.50;;;;;;6245230;22;20494;-83
2021/10/06 10:09:13;;;;;;;1.37;0.70;;;14.40;98.30;;;;;;6242741;22;20745;-84
2021/10/06 10:12:08;;;;;;;3.17;1.13;;;14.10;98.30;;;;;;6238006;22;20457;-84
2021/10/06 10:14:51;;;;;;;3.60;0.90;;;13.90;99.30;;;;;;6264759;22;20454;-86
2021/10/06 10:17:40;;;;;;;3.33;1.37;;;14.20;98.70;;;;;;6268273;22;20811;-86
2021/10/06 10:20:31;;;;;;;2.80;0.70;;;14.30;98.90;;;;;;6265082;22;20506;-84
2021/10/06 10:23:21;;;;;;;1.50;0.70;;;14.10;99.20;;;;;;6240581;22;20425;-84
2021/10/06 10:25:51;;;;;;;1.90;0.90;;;14.10;99.90;;;;;;6242435;22;20441;-86
2021/10/06 10:28:59;;;;;;;2.60;1.00;;;14.40;99.70;;;;;;6253827;22;20900;-87
2021/10/06 10:32:32;;;;;;;2.20;1.10;;;14.40;99.70;;;;;;6241302;22;20595;-85
2021/10/06 10:35:54;;;;;;;0.70;0.70;;;14.00;99.90;;;;;;6231101;22;20461;-85
2021/10/06 10:43:09;;;;;;;;;;;;;;;;;;;;;
2021/10/06 10:46:49;;;;;;;3.13;1.03;;;14.40;99.90;;;;;;6089173;23;21026;-87
2021/10/06 10:50:14;;;;;;;2.53;0.97;;;14.20;99.90;;;;;;6109969;23;20437;-85
2021/10/06 10:53:07;;;;;;;;;;;;;;;;;;;;;
2021/10/06 10:59:43;;;;;;;1.60;0.70;;;14.40;99.90;;;;;;6051569;23;20424;-85
2021/10/06 11:02:26;;;;;;;2.70;0.90;;;14.20;99.90;;;;;;6001724;23;20440;-85
2021/10/06 11:05:16;;;;;;;0.70;0.60;;;14.10;99.90;;;;;;6008621;23;20521;-85
2021/10/06 11:08:27;;;;;;;1.67;1.10;;;14.10;99.90;;;;;;6085857;23;20401;-84
2021/10/06 11:11:16;;;;;;;2.90;1.23;;;14.10;99.90;;;;;;6109097;23;21049;-87
2021/10/06 11:13:48;;;;;;;3.90;2.23;;;14.00;99.90;;;;;;6086040;23;20501;-88
2021/10/06 11:17:11;;;;;;;;;;;;;;;;;;;;;
2021/10/06 11:21:00;;;;;;;;;;;;;;;;;;;;;
2021/10/06 11:23:56;;;;;;;1.53;0.60;;;14.10;99.90;;;;;;6232662;22;20411;-85
2021/10/06 11:27:02;;;;;;;1.13;0.73;;;14.20;99.90;;;;;;6211266;22;20366;-85
2021/10/06 11:29:57;;;;;;;1.30;0.90;;;14.30;99.90;;;;;;6232062;22;20422;-85
2021/10/06 11:37:11;;;;;;;1.60;1.10;;;14.40;99.90;;;;;;6142861;23;20509;-87
2021/10/06 11:39:38;;;;;;;0.80;0.60;;;14.40;99.90;;;;;;6047241;23;20501;-86
2021/10/06 11:42:07;;;;;;;0.90;0.70;;;14.40;99.90;;;;;;6138778;23;20427;-86
2021/10/06 11:44:34;;;;;;;1.80;0.83;;;14.50;99.90;;;;;;6142375;23;20409;-85
2021/10/06 11:47:21;;;;;;;1.10;0.90;;;14.40;99.90;;;;;;6146661;23;20409;-85
2021/10/06 11:50:07;;;;;;;1.90;1.00;;;14.40;99.90;;;;;;6152752;23;20828;-86
2021/10/06 11:53:12;;;;;;;1.33;1.23;;;14.30;99.90;;;;;;6123710;23;20476;-87
2021/10/06 11:56:33;;;;;;;1.27;0.70;;;14.20;99.90;;;;;;6145855;23;20445;-86
2021/10/06 11:59:16;;;;;;;2.53;0.77;;;14.30;99.90;;;;;;6058148;23;20465;-86
2021/10/06 12:03:04;;;;;;;2.20;1.07;;;14.40;99.90;;;;;;6205493;22;20453;-85
2021/10/06 12:05:57;;;;;;;2.03;1.47;;;14.50;99.90;;;;;;6143053;23;20437;-86
2021/10/06 12:09:09;;;;;;;1.17;0.73;;;14.40;99.90;;;;;;6151756;23;20401;-86
2021/10/06 12:12:39;;;;;;;1.80;1.10;;;14.40;99.90;;;;;;6228033;22;20462;-86
2021/10/06 12:19:35;;;;;;;0.87;0.80;;;14.30;99.90;;;;;;6162695;23;20439;-86
2021/10/06 12:22:11;;;;;;;1.00;0.90;;;14.30;99.90;;;;;;6143230;23;20418;-87
2021/10/06 12:24:57;;;;;;;1.00;0.63;;;14.30;99.90;;;;;;6118327;23;20406;-85
2021/10/06 12:27:59;;;;;;;2.97;1.00;;;14.20;99.90;;;;;;6142578;23;20671;-85
2021/10/06 12:31:55;;;;;;;;;;;;;;;;;;;;;
2021/10/06 12:35:31;;;;;;;2.10;0.80;;;14.10;99.90;;;;;;6016142;23;20463;-85
2021/10/06 12:39:05;;;;;;;4.00;1.10;;;14.20;99.90;;;;;;6011775;23;20417;-86
2021/10/06 12:42:08;;;;;;;1.37;0.60;;;14.30;99.90;;;;;;6009562;23;20599;-86
2021/10/06 12:44:52;;;;;;;3.20;0.70;;;14.50;99.90;;;;;;5884215;24;20449;-88
2021/10/06 12:47:30;;;;;;;1.93;1.83;;;14.50;99.90;;;;;;5881222;24;20772;-86
2021/10/06 12:51:07;;;;;;;0.80;0.80;;;14.50;99.90;;;;;;5884934;24;21040;-86
2021/10/06 12:54:14;;;;;;;0.80;0.80;;;14.60;99.90;;;;;;5954706;23;20510;-85
2021/10/06 12:57:01;;;;;;;2.30;1.10;;;14.70;99.90;;;;;;6081091;23;20403;-87
2021/10/06 12:59:30;;;;;;;0.90;0.70;;;14.60;99.90;;;;;;6056682;23;21024;-84
2021/10/06 13:02:04;;;;;;;0.97;0.97;;;14.60;99.90;;;;;;6079791;23;20450;-86
2021/10/06 13:04:41;;;;;;;2.60;1.20;;;14.80;99.90;;;;;;6079623;23;20416;-84
2021/10/06 13:30:15;;;;;;;3.10;1.03;;;14.70;99.90;;;;;;5931799;24;20763;-86
2021/10/06 13:32:53;;;;;;;0.90;0.90;;;14.70;99.90;;;;;;5950282;23;20511;-85
2021/10/06 13:44:15;;;;;;;1.33;1.23;;;14.50;99.90;;;;;;5988296;23;21098;-87
2021/10/06 13:47:16;;;;;;;5.43;1.37;;;14.50;99.90;;;;;;6014730;23;20395;-86
2021/10/06 13:49:59;;;;;;;;;;;;;;;;;;;;;
2021/10/06 13:53:13;;;;;;;1.57;1.37;;;14.50;99.90;;;;;;6015279;23;20391;-86
2021/10/06 13:55:56;;;;;;;1.67;1.37;;;14.50;99.90;;;;;;5970318;23;20441;-87
2021/10/06 14:14:16;;;;;;;2.20;1.37;;;14.40;99.90;;;;;;6019214;23;20379;-87
2021/10/06 14:17:52;;;;;;;1.93;1.30;;;14.70;99.90;;;;;;6080637;23;20394;-86
2021/10/06 14:23:56;;;;;;;1.43;1.33;;;14.60;99.90;;;;;;6228811;22;20451;-85
2021/10/06 14:33:47;;;;;;;;;;;;;;;;;;;;;
2021/10/06 14:36:44;;;;;;;3.60;1.30;;;14.40;99.90;;;;;;6320866;22;20433;-85
2021/10/06 14:39:22;;;;;;;2.60;1.77;;;14.30;99.90;;;;;;6293138;22;20386;-85
2021/10/06 14:42:18;;;;;;;1.50;1.40;;;14.30;99.90;;;;;;6266130;22;20519;-86
2021/10/06 14:44:55;;;;;;;1.43;1.30;;;14.40;99.90;;;;;;6261966;22;20421;-85
2021/10/06 14:47:43;;;;;;;5.47;1.70;;;14.40;99.90;;;;;;6267768;22;20853;-86
2021/10/06 14:50:55;;;;;;;4.53;1.70;;;14.30;99.90;;;;;;6249950;22;20733;-87
2021/10/06 14:53:39;;;;;;;2.03;1.50;;;14.30;99.90;;;;;;6278188;22;20430;-85
2021/10/06 14:56:13;;;;;;;7.13;1.97;;;14.60;99.90;;;;;;6249957;22;20518;-86
2021/10/06 14:59:33;;;;;;;3.83;1.50;;;14.50;99.90;;;;;;6248931;22;20432;-85
2021/10/06 15:02:40;;;;;;;1.73;1.60;;;14.40;99.90;;;;;;6244212;22;20430;-87
2021/10/06 15:05:30;;;;;;;1.93;1.70;;;14.40;99.90;;;;;;6238361;22;20452;-85
2021/10/06 15:08:31;;;;;;;;;;;;;;;;;;;;;
2021/10/06 15:11:23;;;;;;;3.43;1.57;;;14.50;99.90;;;;;;6278246;22;20984;-87
2021/10/06 15:14:12;;;;;;;2.30;1.60;;;14.40;99.90;;;;;;6247973;22;20410;-87
2021/10/06 15:16:59;;;;;;;2.20;1.57;;;14.40;99.90;;;;;;6247728;22;20959;-84
2021/10/06 15:19:42;;;;;;;1.50;1.40;;;14.70;99.90;;;;;;6273089;22;20438;-87
2021/10/06 15:22:20;;;;;;;2.03;1.80;;;14.50;99.90;;;;;;6299094;22;20437;-87
2021/10/06 15:25:31;;;;;;;2.27;2.07;;;14.40;99.90;;;;;;6286995;22;20435;-87
2021/10/06 15:29:12;;;;;;;;;;;;;;;;;;;;;
2021/10/06 15:32:01;;;;;;;3.33;2.47;;;14.40;99.90;;;;;;6264264;22;20405;-88
2021/10/06 15:38:17;;;;;;;2.80;1.90;;;14.40;99.90;;;;;;6272786;22;20354;-87
2021/10/06 15:41:02;;;;;;;3.43;2.10;;;14.50;99.90;;;;;;6252279;22;20529;-87
2021/10/06 15:47:16;;;;;;;3.40;2.17;;;14.70;99.90;;;;;;6282977;22;20386;-85
2021/10/06 15:49:43;;;;;;;6.20;2.30;;;14.50;99.90;;;;;;6255209;22;20416;-88
2021/10/06 15:52:10;;;;;;;2.13;1.90;;;14.50;99.90;;;;;;6278377;22;20453;-85
2021/10/06 15:54:37;;;;;;;3.50;2.40;;;14.50;99.90;;;;;;6253558;22;20449;-87
2021/10/06 15:57:05;;;;;;;2.77;2.40;;;14.40;99.90;;;;;;6275790;22;20599;-86
2021/10/06 15:59:36;;;;;;;3.67;2.10;;;14.40;99.90;;;;;;6245546;22;20413;-87
2021/10/06 16:02:03;;;;;;;4.63;2.40;;;14.40;99.90;;;;;;6279500;22;20969;-87
2021/10/06 16:04:30;;;;;;;2.80;1.90;;;14.30;99.90;;;;;;6252574;22;20515;-87
2021/10/06 16:06:58;;;;;;;4.50;1.90;;;14.50;99.90;;;;;;6244245;22;20421;-84
2021/10/06 16:09:28;;;;;;;2.00;1.90;;;14.70;99.90;;;;;;6226505;22;20967;-88
2021/10/06 16:11:59;;;;;;;2.00;1.90;;;14.60;99.90;;;;;;6256774;22;20434;-85
2021/10/06 16:14:34;;;;;;;4.60;2.13;;;14.50;99.90;;;;;;6242080;22;20401;-87
2021/10/06 16:17:04;;;;;;;2.33;2.10;;;14.40;99.90;;;;;;6254929;22;20890;-87
2021/10/06 16:19:31;;;;;;;2.43;1.90;;;14.40;99.90;;;;;;6253328;22;20566;-86
2021/10/06 16:22:00;;;;;;;4.00;2.23;;;14.40;99.90;;;;;;6273666;22;20952;-87
2021/10/06 16:24:28;;;;;;;4.10;2.23;;;14.40;99.90;;;;;;6254634;22;20490;-87
2021/10/06 16:26:54;;;;;;;2.63;2.27;;;14.40;99.90;;;;;;6251828;22;20425;-88
2021/10/06 16:29:25;;;;;;;3.00;2.30;;;14.30;99.90;;;;;;6280248;22;20449;-87
2021/10/06 16:32:00;;;;;;;2.60;2.40;;;14.20;99.90;;;;;;6252486;22;20446;-87
2021/10/06 16:34:27;;;;;;;2.90;2.00;;;14.20;99.90;;;;;;6280899;22;20394;-87
2021/10/06 16:37:15;;;;;;;2.33;2.13;;;14.20;99.90;;;;;;6281566;22;20406;-87
2021/10/06 16:39:45;;;;;;;4.63;4.13;;;14.20;99.90;;;;;;6251196;22;20402;-86
2021/10/06 16:42:16;;;;;;;4.37;2.13;;;14.10;99.90;;;;;;6259287;22;20453;-88
2021/10/06 16:44:45;;;;;;;2.77;2.57;;;14.10;99.90;;;;;;6287782;22;20390;-88
2021/10/06 16:47:12;;;;;;;8.00;3.20;;;14.10;99.90;;;;;;6258851;22;20465;-86
2021/10/06 16:49:39;;;;;;;2.23;2.00;;;14.00;99.90;;;;;;6258249;22;20433;-88
2021/10/06 16:52:06;;;;;;;3.73;2.10;;;14.00;99.90;;;;;;6284123;22;20893;-87
2021/10/06 16:54:39;;;;;;;3.43;3.13;;;14.00;99.90;;;;;;6285332;22;20425;-87
2021/10/06 16:57:10;;;;;;;4.03;2.53;;;13.90;99.90;;;;;;6253138;22;20499;-85
2021/10/06 16:59:40;;;;;;;3.07;2.77;;;14.10;99.90;;;;;;6254872;22;20414;-86
2021/10/06 17:02:13;;;;;;;6.17;3.30;;;14.20;99.90;;;;;;6256211;22;20427;-87
2021/10/06 17:34:45;;;;;;;6.03;3.83;;;13.70;99.90;;;;;;6249416;22;20414;-88
2021/10/06 17:37:16;;;;;;;3.57;3.20;;;13.70;99.90;;;;;;6246094;22;20407;-86
2021/10/06 17:39:44;;;;;;;4.33;2.77;;;13.70;99.90;;;;;;6224264;22;20460;-86
2021/10/06 17:42:15;;;;;;;3.93;3.00;;;13.70;99.90;;;;;;6216208;23;20523;-89
2021/10/06 17:44:42;;;;;;;2.57;2.37;;;13.60;99.90;;;;;;6189376;23;20788;-88
2021/10/06 17:47:08;;;;;;;3.20;2.90;;;13.70;99.90;;;;;;6218019;23;20416;-85
2021/10/06 17:49:35;;;;;;;3.03;2.50;;;13.60;99.90;;;;;;6191087;23;20420;-87
2021/10/06 17:52:03;;;;;;;3.73;2.53;;;13.70;99.90;;;;;;6190279;23;20445;-86
2021/10/06 17:54:33;;;;;;;2.97;2.40;;;13.70;99.90;;;;;;6189298;23;20408;-88
2021/10/06 18:00:33;;;;;;;5.87;5.03;;;13.60;99.90;;;;;;6219418;22;20439;-86
2021/10/06 18:03:01;;;;;;;6.70;4.27;;;13.70;99.90;;;;;;6189564;23;20392;-86
2021/10/06 18:05:29;;;;;;;5.93;5.20;;;13.70;99.90;;;;;;6188065;23;20499;-87
2021/10/06 18:07:59;;;;;;;5.30;4.40;;;13.70;99.90;;;;;;6193037;23;20800;-89
2021/10/06 18:10:29;;;;;;;4.73;3.67;;;13.60;99.90;;;;;;6181866;23;21367;-86
2021/10/06 18:12:59;;;;;;;8.73;7.67;;;13.60;99.90;;;;;;6185595;23;20533;-87
2021/10/06 18:15:27;;;;;;;4.80;3.77;;;13.60;99.90;;;;;;6217240;23;20448;-87
2021/10/06 18:17:55;;;;;;;12.93;11.63;;;13.60;99.90;;;;;;6185655;23;20434;-86
2021/10/06 18:20:25;;;;;;;8.87;7.53;;;13.60;99.90;;;;;;6088750;22;20467;-87
2021/10/06 18:26:40;;;;;;;7.40;4.90;;;13.60;99.90;;;;;;6178218;23;20493;-86
2021/10/06 18:29:21;;;;;;;6.43;4.27;;;13.60;99.90;;;;;;6208331;23;21297;-87
2021/10/06 23:45:54;;;;;;;;;;;;;;;;;;;;;
2021/10/06 23:49:33;;;;;;;12.40;10.47;;;13.60;99.90;;;;;;6238252;22;20914;-88
2021/10/06 23:58:39;;;;;;;11.60;10.47;;;13.70;99.90;;;;;;6313069;22;20402;-87
